sensor_id;sensor_type;location;lat;lon;timestamp;temperature;humidity
3051;DHT22;1535;51.098;6.414;2022-10-31T00:01:17;14.20;99.90
3051;DHT22;1535;51.098;6.414;2022-10-31T00:03:44;14.20;99.90
3051;DHT22;1535;51.098;6.414;2022-10-31T00:06:11;14.30;99.90
3051;DHT22;1535;51.098;6.414;2022-10-31T00:08:38;14.40;99.90
3051;DHT22;1535;51.098;6.414;2022-10-31T00:11:08;14.50;99.90
3051;DHT22;1535;51.098;6.414;2022-10-31T00:13:35;14.60;99.90
3051;DHT22;1535;51.098;6.414;2022-10-31T00:16:12;14.60;99.90
3051;DHT22;1535;51.098;6.414;2022-10-31T00:18:39;14.60;99.90
3051;DHT22;1535;51.098;6.414;2022-10-31T00:21:06;14.50;99.90
3051;DHT22;1535;51.098;6.414;2022-10-31T00:23:33;14.50;99.90
3051;DHT22;1535;51.098;6.414;2022-10-31T00:26:01;14.50;99.90
3051;DHT22;1535;51.098;6.414;2022-10-31T00:28:29;14.50;99.90
3051;DHT22;1535;51.098;6.414;2022-10-31T00:30:59;14.50;99.90
3051;DHT22;1535;51.098;6.414;2022-10-31T00:33:28;14.50;99.90
3051;DHT22;1535;51.098;6.414;2022-10-31T00:35:56;14.50;99.90
3051;DHT22;1535;51.098;6.414;2022-10-31T00:38:24;14.50;99.90
3051;DHT22;1535;51.098;6.414;2022-10-31T00:40:51;14.60;99.90
3051;DHT22;1535;51.098;6.414;2022-10-31T00:43:20;14.50;99.90
3051;DHT22;1535;51.098;6.414;2022-10-31T00:45:47;14.60;99.90
3051;DHT22;1535;51.098;6.414;2022-10-31T00:48:14;14.70;99.90
3051;DHT22;1535;51.098;6.414;2022-10-31T00:50:42;14.80;99.90
3051;DHT22;1535;51.098;6.414;2022-10-31T00:53:10;14.90;99.90
3051;DHT22;1535;51.098;6.414;2022-10-31T00:55:38;14.90;99.90
3051;DHT22;1535;51.098;6.414;2022-10-31T00:58:05;14.80;99.90
3051;DHT22;1535;51.098;6.414;2022-10-31T01:00:32;14.90;99.90
3051;DHT22;1535;51.098;6.414;2022-10-31T01:02:58;15.00;99.90
3051;DHT22;1535;51.098;6.414;2022-10-31T01:05:25;15.10;99.90
3051;DHT22;1535;51.098;6.414;2022-10-31T01:07:53;15.00;99.90
3051;DHT22;1535;51.098;6.414;2022-10-31T01:10:20;15.00;99.90
3051;DHT22;1535;51.098;6.414;2022-10-31T01:12:48;14.90;99.90
3051;DHT22;1535;51.098;6.414;2022-10-31T01:15:19;14.90;99.90
3051;DHT22;1535;51.098;6.414;2022-10-31T01:17:46;14.70;99.90
3051;DHT22;1535;51.098;6.414;2022-10-31T01:20:14;14.60;99.90
3051;DHT22;1535;51.098;6.414;2022-10-31T01:22:42;14.40;99.90
3051;DHT22;1535;51.098;6.414;2022-10-31T01:25:11;14.30;99.90
3051;DHT22;1535;51.098;6.414;2022-10-31T01:27:38;14.20;99.90
3051;DHT22;1535;51.098;6.414;2022-10-31T01:30:06;14.10;99.90
3051;DHT22;1535;51.098;6.414;2022-10-31T01:32:34;14.00;99.90
3051;DHT22;1535;51.098;6.414;2022-10-31T01:35:01;13.90;99.90
3051;DHT22;1535;51.098;6.414;2022-10-31T01:37:27;13.90;99.90
3051;DHT22;1535;51.098;6.414;2022-10-31T01:39:54;13.80;99.90
3051;DHT22;1535;51.098;6.414;2022-10-31T01:42:24;13.70;99.90
3051;DHT22;1535;51.098;6.414;2022-10-31T01:44:56;13.50;99.90
3051;DHT22;1535;51.098;6.414;2022-10-31T01:47:35;13.40;99.90
3051;DHT22;1535;51.098;6.414;2022-10-31T01:50:10;13.40;99.90
3051;DHT22;1535;51.098;6.414;2022-10-31T01:52:39;13.40;99.90
3051;DHT22;1535;51.098;6.414;2022-10-31T01:55:09;13.20;99.90
3051;DHT22;1535;51.098;6.414;2022-10-31T01:57:42;13.10;99.90
3051;DHT22;1535;51.098;6.414;2022-10-31T02:00:13;13.00;99.90
3051;DHT22;1535;51.098;6.414;2022-10-31T02:02:40;12.90;99.90
3051;DHT22;1535;51.098;6.414;2022-10-31T02:05:10;12.90;99.90
3051;DHT22;1535;51.098;6.414;2022-10-31T02:07:43;12.80;99.90
3051;DHT22;1535;51.098;6.414;2022-10-31T02:10:12;12.70;99.90
3051;DHT22;1535;51.098;6.414;2022-10-31T02:12:41;12.70;99.90
3051;DHT22;1535;51.098;6.414;2022-10-31T02:15:09;12.80;99.90
3051;DHT22;1535;51.098;6.414;2022-10-31T02:17:36;12.70;99.90
3051;DHT22;1535;51.098;6.414;2022-10-31T02:20:10;12.70;99.90
3051;DHT22;1535;51.098;6.414;2022-10-31T02:23:10;12.70;99.90
3051;DHT22;1535;51.098;6.414;2022-10-31T02:26:04;12.60;99.90
3051;DHT22;1535;51.098;6.414;2022-10-31T02:29:05;12.60;99.90
3051;DHT22;1535;51.098;6.414;2022-10-31T02:31:42;12.70;99.90
3051;DHT22;1535;51.098;6.414;2022-10-31T02:34:17;12.70;99.90
3051;DHT22;1535;51.098;6.414;2022-10-31T02:36:52;12.70;99.90
3051;DHT22;1535;51.098;6.414;2022-10-31T02:39:24;12.60;99.90
3051;DHT22;1535;51.098;6.414;2022-10-31T02:42:01;12.50;99.90
3051;DHT22;1535;51.098;6.414;2022-10-31T02:44:36;12.50;99.90
3051;DHT22;1535;51.098;6.414;2022-10-31T02:47:06;12.40;99.90
3051;DHT22;1535;51.098;6.414;2022-10-31T02:49:39;12.40;99.90
3051;DHT22;1535;51.098;6.414;2022-10-31T02:52:16;12.40;99.90
3051;DHT22;1535;51.098;6.414;2022-10-31T02:54:45;12.30;99.90
3051;DHT22;1535;51.098;6.414;2022-10-31T02:57:13;12.20;99.90
3051;DHT22;1535;51.098;6.414;2022-10-31T02:59:44;12.20;99.90
3051;DHT22;1535;51.098;6.414;2022-10-31T03:02:34;12.30;99.90
3051;DHT22;1535;51.098;6.414;2022-10-31T03:05:29;12.40;99.90
3051;DHT22;1535;51.098;6.414;2022-10-31T03:08:04;12.40;99.90
3051;DHT22;1535;51.098;6.414;2022-10-31T03:10:40;12.40;99.90
3051;DHT22;1535;51.098;6.414;2022-10-31T03:13:10;12.40;99.90
3051;DHT22;1535;51.098;6.414;2022-10-31T03:15:42;12.40;99.90
3051;DHT22;1535;51.098;6.414;2022-10-31T03:18:15;12.50;99.90
3051;DHT22;1535;51.098;6.414;2022-10-31T03:20:47;12.50;99.90
3051;DHT22;1535;51.098;6.414;2022-10-31T03:23:16;12.50;99.90
3051;DHT22;1535;51.098;6.414;2022-10-31T03:25:45;12.60;99.90
3051;DHT22;1535;51.098;6.414;2022-10-31T03:28:16;12.70;99.90
3051;DHT22;1535;51.098;6.414;2022-10-31T03:30:45;12.70;99.90
3051;DHT22;1535;51.098;6.414;2022-10-31T03:33:18;12.70;99.90
3051;DHT22;1535;51.098;6.414;2022-10-31T03:35:50;12.70;99.90
3051;DHT22;1535;51.098;6.414;2022-10-31T03:38:20;12.70;99.90
3051;DHT22;1535;51.098;6.414;2022-10-31T03:40:49;12.70;99.90
3051;DHT22;1535;51.098;6.414;2022-10-31T03:43:21;12.60;99.90
3051;DHT22;1535;51.098;6.414;2022-10-31T03:45:48;12.60;99.90
3051;DHT22;1535;51.098;6.414;2022-10-31T03:48:18;12.50;99.90
3051;DHT22;1535;51.098;6.414;2022-10-31T03:51:04;12.50;99.90
3051;DHT22;1535;51.098;6.414;2022-10-31T03:53:36;12.50;99.90
3051;DHT22;1535;51.098;6.414;2022-10-31T03:56:09;12.50;99.90
3051;DHT22;1535;51.098;6.414;2022-10-31T03:58:41;12.40;99.90
3051;DHT22;1535;51.098;6.414;2022-10-31T04:01:11;12.40;99.90
3051;DHT22;1535;51.098;6.414;2022-10-31T04:03:43;12.30;99.90
3051;DHT22;1535;51.098;6.414;2022-10-31T04:06:13;12.30;99.90
3051;DHT22;1535;51.098;6.414;2022-10-31T04:08:44;12.20;99.90
3051;DHT22;1535;51.098;6.414;2022-10-31T04:11:13;12.30;99.90
3051;DHT22;1535;51.098;6.414;2022-10-31T04:13:42;12.30;99.90
3051;DHT22;1535;51.098;6.414;2022-10-31T04:16:11;12.30;99.90
3051;DHT22;1535;51.098;6.414;2022-10-31T04:18:42;12.30;99.90
3051;DHT22;1535;51.098;6.414;2022-10-31T04:21:09;12.30;99.90
3051;DHT22;1535;51.098;6.414;2022-10-31T04:23:36;12.30;99.90
3051;DHT22;1535;51.098;6.414;2022-10-31T04:26:04;12.40;99.90
3051;DHT22;1535;51.098;6.414;2022-10-31T04:28:30;12.30;99.90
3051;DHT22;1535;51.098;6.414;2022-10-31T04:30:59;12.20;99.90
3051;DHT22;1535;51.098;6.414;2022-10-31T04:33:26;12.10;99.90
3051;DHT22;1535;51.098;6.414;2022-10-31T04:35:55;12.00;99.90
3051;DHT22;1535;51.098;6.414;2022-10-31T04:38:22;12.00;99.90
3051;DHT22;1535;51.098;6.414;2022-10-31T04:40:49;11.90;99.90
3051;DHT22;1535;51.098;6.414;2022-10-31T04:43:15;11.90;99.90
3051;DHT22;1535;51.098;6.414;2022-10-31T04:45:42;12.00;99.90
3051;DHT22;1535;51.098;6.414;2022-10-31T04:48:10;12.00;99.90
3051;DHT22;1535;51.098;6.414;2022-10-31T04:50:36;12.00;99.90
3051;DHT22;1535;51.098;6.414;2022-10-31T04:53:04;12.00;99.90
3051;DHT22;1535;51.098;6.414;2022-10-31T04:55:31;12.10;99.90
3051;DHT22;1535;51.098;6.414;2022-10-31T04:57:58;12.10;99.90
3051;DHT22;1535;51.098;6.414;2022-10-31T05:00:26;12.20;99.90
3051;DHT22;1535;51.098;6.414;2022-10-31T05:02:54;12.10;99.90
3051;DHT22;1535;51.098;6.414;2022-10-31T05:05:24;12.10;99.90
3051;DHT22;1535;51.098;6.414;2022-10-31T05:07:51;12.10;99.90
3051;DHT22;1535;51.098;6.414;2022-10-31T05:10:21;12.10;99.90
3051;DHT22;1535;51.098;6.414;2022-10-31T05:12:49;12.10;99.90
3051;DHT22;1535;51.098;6.414;2022-10-31T05:15:17;12.10;99.90
3051;DHT22;1535;51.098;6.414;2022-10-31T05:17:44;12.10;99.90
3051;DHT22;1535;51.098;6.414;2022-10-31T05:20:12;12.10;99.90
3051;DHT22;1535;51.098;6.414;2022-10-31T05:22:42;12.10;99.90
3051;DHT22;1535;51.098;6.414;2022-10-31T05:25:10;12.00;99.90
3051;DHT22;1535;51.098;6.414;2022-10-31T05:27:40;11.90;99.90
3051;DHT22;1535;51.098;6.414;2022-10-31T05:30:08;11.90;99.90
3051;DHT22;1535;51.098;6.414;2022-10-31T05:32:38;11.80;99.90
3051;DHT22;1535;51.098;6.414;2022-10-31T05:35:07;11.70;99.90
3051;DHT22;1535;51.098;6.414;2022-10-31T05:37:34;11.80;99.90
3051;DHT22;1535;51.098;6.414;2022-10-31T05:40:02;11.70;99.90
3051;DHT22;1535;51.098;6.414;2022-10-31T05:42:29;11.70;99.90
3051;DHT22;1535;51.098;6.414;2022-10-31T05:44:58;11.70;99.90
3051;DHT22;1535;51.098;6.414;2022-10-31T05:47:25;11.60;99.90
3051;DHT22;1535;51.098;6.414;2022-10-31T05:49:52;11.70;99.90
3051;DHT22;1535;51.098;6.414;2022-10-31T05:52:19;11.60;99.90
3051;DHT22;1535;51.098;6.414;2022-10-31T05:54:46;11.60;99.90
3051;DHT22;1535;51.098;6.414;2022-10-31T05:57:13;11.60;99.90
3051;DHT22;1535;51.098;6.414;2022-10-31T05:59:40;11.60;99.90
3051;DHT22;1535;51.098;6.414;2022-10-31T06:02:09;11.50;99.90
3051;DHT22;1535;51.098;6.414;2022-10-31T06:04:35;11.50;99.90
3051;DHT22;1535;51.098;6.414;2022-10-31T06:07:03;11.60;99.90
3051;DHT22;1535;51.098;6.414;2022-10-31T06:09:30;11.60;99.90
3051;DHT22;1535;51.098;6.414;2022-10-31T06:11:56;11.60;99.90
3051;DHT22;1535;51.098;6.414;2022-10-31T06:14:23;11.60;99.90
3051;DHT22;1535;51.098;6.414;2022-10-31T06:16:50;11.50;99.90
3051;DHT22;1535;51.098;6.414;2022-10-31T06:19:19;11.60;99.90
3051;DHT22;1535;51.098;6.414;2022-10-31T06:21:46;11.60;99.90
3051;DHT22;1535;51.098;6.414;2022-10-31T06:24:13;11.60;99.90
3051;DHT22;1535;51.098;6.414;2022-10-31T06:26:40;11.60;99.90
3051;DHT22;1535;51.098;6.414;2022-10-31T06:29:07;11.70;99.90
3051;DHT22;1535;51.098;6.414;2022-10-31T06:31:34;11.80;99.90
3051;DHT22;1535;51.098;6.414;2022-10-31T06:34:01;11.90;99.90
3051;DHT22;1535;51.098;6.414;2022-10-31T06:36:29;11.80;99.90
3051;DHT22;1535;51.098;6.414;2022-10-31T06:38:56;11.80;99.90
3051;DHT22;1535;51.098;6.414;2022-10-31T06:41:23;11.80;99.90
3051;DHT22;1535;51.098;6.414;2022-10-31T06:43:50;11.90;99.90
3051;DHT22;1535;51.098;6.414;2022-10-31T06:46:18;11.90;99.90
3051;DHT22;1535;51.098;6.414;2022-10-31T06:48:44;11.90;99.90
3051;DHT22;1535;51.098;6.414;2022-10-31T06:51:11;11.80;99.90
3051;DHT22;1535;51.098;6.414;2022-10-31T06:53:39;11.90;99.90
3051;DHT22;1535;51.098;6.414;2022-10-31T06:56:06;12.00;99.90
3051;DHT22;1535;51.098;6.414;2022-10-31T06:58:34;12.00;99.90
3051;DHT22;1535;51.098;6.414;2022-10-31T07:01:01;12.00;99.90
3051;DHT22;1535;51.098;6.414;2022-10-31T07:03:28;12.00;99.90
3051;DHT22;1535;51.098;6.414;2022-10-31T07:05:55;12.00;99.90
3051;DHT22;1535;51.098;6.414;2022-10-31T07:08:24;12.00;99.90
3051;DHT22;1535;51.098;6.414;2022-10-31T07:10:54;12.10;99.90
3051;DHT22;1535;51.098;6.414;2022-10-31T07:13:22;12.20;99.90
3051;DHT22;1535;51.098;6.414;2022-10-31T07:15:52;12.30;99.90
3051;DHT22;1535;51.098;6.414;2022-10-31T07:18:20;12.30;99.90
3051;DHT22;1535;51.098;6.414;2022-10-31T07:20:47;12.30;99.90
3051;DHT22;1535;51.098;6.414;2022-10-31T07:23:14;12.40;99.90
3051;DHT22;1535;51.098;6.414;2022-10-31T07:25:41;12.40;99.90
3051;DHT22;1535;51.098;6.414;2022-10-31T07:28:10;12.50;99.90
3051;DHT22;1535;51.098;6.414;2022-10-31T07:30:37;12.60;99.90
3051;DHT22;1535;51.098;6.414;2022-10-31T07:33:05;12.70;99.90
3051;DHT22;1535;51.098;6.414;2022-10-31T07:35:32;12.60;99.90
3051;DHT22;1535;51.098;6.414;2022-10-31T07:38:07;12.70;99.90
3051;DHT22;1535;51.098;6.414;2022-10-31T07:40:34;12.70;99.90
3051;DHT22;1535;51.098;6.414;2022-10-31T07:43:01;12.80;99.90
3051;DHT22;1535;51.098;6.414;2022-10-31T07:45:29;12.90;99.90
3051;DHT22;1535;51.098;6.414;2022-10-31T07:47:56;12.90;99.90
3051;DHT22;1535;51.098;6.414;2022-10-31T07:50:25;12.90;99.90
3051;DHT22;1535;51.098;6.414;2022-10-31T07:52:59;12.90;99.90
3051;DHT22;1535;51.098;6.414;2022-10-31T07:55:26;13.00;99.90
3051;DHT22;1535;51.098;6.414;2022-10-31T07:57:58;13.00;99.90
3051;DHT22;1535;51.098;6.414;2022-10-31T08:00:25;13.00;99.90
3051;DHT22;1535;51.098;6.414;2022-10-31T08:03:00;13.10;99.90
3051;DHT22;1535;51.098;6.414;2022-10-31T08:05:29;13.10;99.90
3051;DHT22;1535;51.098;6.414;2022-10-31T08:07:56;13.20;99.90
3051;DHT22;1535;51.098;6.414;2022-10-31T08:10:24;13.30;99.90
3051;DHT22;1535;51.098;6.414;2022-10-31T08:12:57;13.30;99.90
3051;DHT22;1535;51.098;6.414;2022-10-31T08:15:24;13.40;99.90
3051;DHT22;1535;51.098;6.414;2022-10-31T08:17:52;13.60;99.90
3051;DHT22;1535;51.098;6.414;2022-10-31T08:20:21;13.80;99.90
3051;DHT22;1535;51.098;6.414;2022-10-31T08:22:55;13.90;99.90
3051;DHT22;1535;51.098;6.414;2022-10-31T08:25:23;14.10;99.90
3051;DHT22;1535;51.098;6.414;2022-10-31T08:27:51;14.10;99.90
3051;DHT22;1535;51.098;6.414;2022-10-31T08:30:18;14.20;99.90
3051;DHT22;1535;51.098;6.414;2022-10-31T08:32:46;14.20;99.90
3051;DHT22;1535;51.098;6.414;2022-10-31T08:35:13;14.20;99.90
3051;DHT22;1535;51.098;6.414;2022-10-31T08:37:41;14.30;99.90
3051;DHT22;1535;51.098;6.414;2022-10-31T08:40:09;14.40;99.90
3051;DHT22;1535;51.098;6.414;2022-10-31T08:42:36;14.50;99.90
3051;DHT22;1535;51.098;6.414;2022-10-31T08:45:04;14.50;99.90
3051;DHT22;1535;51.098;6.414;2022-10-31T08:47:31;14.60;99.90
3051;DHT22;1535;51.098;6.414;2022-10-31T08:49:58;14.80;99.90
3051;DHT22;1535;51.098;6.414;2022-10-31T08:52:26;14.90;99.90
3051;DHT22;1535;51.098;6.414;2022-10-31T08:54:54;15.00;99.90
3051;DHT22;1535;51.098;6.414;2022-10-31T08:57:21;15.20;99.90
3051;DHT22;1535;51.098;6.414;2022-10-31T08:59:48;15.40;99.90
3051;DHT22;1535;51.098;6.414;2022-10-31T09:02:15;15.50;99.90
3051;DHT22;1535;51.098;6.414;2022-10-31T09:04:42;15.50;99.90
3051;DHT22;1535;51.098;6.414;2022-10-31T09:07:08;15.50;99.90
3051;DHT22;1535;51.098;6.414;2022-10-31T09:09:35;15.60;99.90
3051;DHT22;1535;51.098;6.414;2022-10-31T09:12:03;15.70;99.90
3051;DHT22;1535;51.098;6.414;2022-10-31T09:14:30;15.80;99.90
3051;DHT22;1535;51.098;6.414;2022-10-31T09:16:58;16.10;99.90
3051;DHT22;1535;51.098;6.414;2022-10-31T09:19:25;16.40;99.90
3051;DHT22;1535;51.098;6.414;2022-10-31T09:21:54;16.60;99.90
3051;DHT22;1535;51.098;6.414;2022-10-31T09:24:21;16.90;99.90
3051;DHT22;1535;51.098;6.414;2022-10-31T09:26:48;17.00;99.90
3051;DHT22;1535;51.098;6.414;2022-10-31T09:29:16;17.30;99.90
3051;DHT22;1535;51.098;6.414;2022-10-31T09:31:43;17.40;99.90
3051;DHT22;1535;51.098;6.414;2022-10-31T09:34:10;17.50;99.90
3051;DHT22;1535;51.098;6.414;2022-10-31T09:36:37;17.60;99.90
3051;DHT22;1535;51.098;6.414;2022-10-31T09:39:04;17.80;99.90
3051;DHT22;1535;51.098;6.414;2022-10-31T09:44:33;17.90;99.90
3051;DHT22;1535;51.098;6.414;2022-10-31T09:47:06;18.00;99.90
3051;DHT22;1535;51.098;6.414;2022-10-31T09:49:42;17.90;99.90
3051;DHT22;1535;51.098;6.414;2022-10-31T09:52:16;17.70;99.90
3051;DHT22;1535;51.098;6.414;2022-10-31T09:54:47;17.90;99.90
3051;DHT22;1535;51.098;6.414;2022-10-31T09:57:16;17.90;99.90
3051;DHT22;1535;51.098;6.414;2022-10-31T09:59:47;18.00;99.90
3051;DHT22;1535;51.098;6.414;2022-10-31T10:02:17;18.10;99.90
3051;DHT22;1535;51.098;6.414;2022-10-31T10:04:51;18.30;99.90
3051;DHT22;1535;51.098;6.414;2022-10-31T10:07:25;18.30;99.90
3051;DHT22;1535;51.098;6.414;2022-10-31T10:09:55;18.40;99.90
3051;DHT22;1535;51.098;6.414;2022-10-31T10:12:33;18.70;99.90
3051;DHT22;1535;51.098;6.414;2022-10-31T10:15:23;19.00;99.90
3051;DHT22;1535;51.098;6.414;2022-10-31T10:18:00;19.10;99.90
3051;DHT22;1535;51.098;6.414;2022-10-31T10:20:33;19.40;99.90
3051;DHT22;1535;51.098;6.414;2022-10-31T10:23:17;19.60;99.90
3051;DHT22;1535;51.098;6.414;2022-10-31T10:25:53;20.10;99.90
3051;DHT22;1535;51.098;6.414;2022-10-31T10:28:26;20.10;99.90
3051;DHT22;1535;51.098;6.414;2022-10-31T10:30:59;19.90;99.90
3051;DHT22;1535;51.098;6.414;2022-10-31T10:33:30;19.60;99.90
3051;DHT22;1535;51.098;6.414;2022-10-31T10:36:00;19.60;99.90
3051;DHT22;1535;51.098;6.414;2022-10-31T10:38:30;18.90;99.90
3051;DHT22;1535;51.098;6.414;2022-10-31T10:41:04;18.80;99.90
3051;DHT22;1535;51.098;6.414;2022-10-31T10:43:34;18.70;99.90
3051;DHT22;1535;51.098;6.414;2022-10-31T10:46:17;19.20;99.90
3051;DHT22;1535;51.098;6.414;2022-10-31T10:49:10;19.10;99.90
3051;DHT22;1535;51.098;6.414;2022-10-31T10:51:43;19.50;99.90
3051;DHT22;1535;51.098;6.414;2022-10-31T10:57:10;19.80;99.90
3051;DHT22;1535;51.098;6.414;2022-10-31T10:59:38;19.70;99.90
3051;DHT22;1535;51.098;6.414;2022-10-31T11:02:17;19.60;99.90
3051;DHT22;1535;51.098;6.414;2022-10-31T11:04:46;19.30;99.90
3051;DHT22;1535;51.098;6.414;2022-10-31T11:07:14;19.30;99.90
3051;DHT22;1535;51.098;6.414;2022-10-31T11:09:41;19.20;99.90
3051;DHT22;1535;51.098;6.414;2022-10-31T11:12:10;19.40;99.90
3051;DHT22;1535;51.098;6.414;2022-10-31T11:14:45;19.40;99.90
3051;DHT22;1535;51.098;6.414;2022-10-31T11:17:24;19.60;99.90
3051;DHT22;1535;51.098;6.414;2022-10-31T11:20:04;19.90;99.90
3051;DHT22;1535;51.098;6.414;2022-10-31T11:22:32;19.90;99.90
3051;DHT22;1535;51.098;6.414;2022-10-31T11:24:59;20.00;99.90
3051;DHT22;1535;51.098;6.414;2022-10-31T11:27:27;20.00;99.90
3051;DHT22;1535;51.098;6.414;2022-10-31T11:30:04;20.00;99.90
3051;DHT22;1535;51.098;6.414;2022-10-31T11:32:32;20.10;99.90
3051;DHT22;1535;51.098;6.414;2022-10-31T11:35:02;20.30;99.90
3051;DHT22;1535;51.098;6.414;2022-10-31T11:37:32;20.40;99.90
3051;DHT22;1535;51.098;6.414;2022-10-31T11:40:05;20.50;99.90
3051;DHT22;1535;51.098;6.414;2022-10-31T11:42:36;20.80;99.90
3051;DHT22;1535;51.098;6.414;2022-10-31T11:45:07;21.20;99.90
3051;DHT22;1535;51.098;6.414;2022-10-31T11:47:43;21.50;99.90
3051;DHT22;1535;51.098;6.414;2022-10-31T11:50:18;21.60;99.90
3051;DHT22;1535;51.098;6.414;2022-10-31T11:52:47;21.60;99.90
3051;DHT22;1535;51.098;6.414;2022-10-31T11:55:16;21.80;99.90
3051;DHT22;1535;51.098;6.414;2022-10-31T11:57:46;21.60;99.90
3051;DHT22;1535;51.098;6.414;2022-10-31T12:00:22;21.80;99.90
3051;DHT22;1535;51.098;6.414;2022-10-31T12:02:50;21.80;99.90
3051;DHT22;1535;51.098;6.414;2022-10-31T12:05:19;21.80;99.90
3051;DHT22;1535;51.098;6.414;2022-10-31T12:07:48;22.20;99.90
3051;DHT22;1535;51.098;6.414;2022-10-31T12:10:15;22.40;99.90
3051;DHT22;1535;51.098;6.414;2022-10-31T12:12:54;22.30;99.90
3051;DHT22;1535;51.098;6.414;2022-10-31T12:15:34;22.30;99.90
3051;DHT22;1535;51.098;6.414;2022-10-31T12:21:19;22.20;99.90
3051;DHT22;1535;51.098;6.414;2022-10-31T12:23:55;22.50;99.90
3051;DHT22;1535;51.098;6.414;2022-10-31T12:26:31;22.70;99.90
3051;DHT22;1535;51.098;6.414;2022-10-31T12:29:12;23.20;99.90
3051;DHT22;1535;51.098;6.414;2022-10-31T12:31:51;23.20;99.90
3051;DHT22;1535;51.098;6.414;2022-10-31T12:34:47;23.20;99.90
3051;DHT22;1535;51.098;6.414;2022-10-31T12:37:28;23.30;99.90
3051;DHT22;1535;51.098;6.414;2022-10-31T12:40:19;23.20;99.90
3051;DHT22;1535;51.098;6.414;2022-10-31T12:42:59;23.20;99.90
3051;DHT22;1535;51.098;6.414;2022-10-31T12:45:39;23.50;99.90
3051;DHT22;1535;51.098;6.414;2022-10-31T12:51:03;23.20;99.90
3051;DHT22;1535;51.098;6.414;2022-10-31T12:53:50;23.10;99.90
3051;DHT22;1535;51.098;6.414;2022-10-31T12:56:29;23.10;99.90
3051;DHT22;1535;51.098;6.414;2022-10-31T12:59:01;22.90;99.90
3051;DHT22;1535;51.098;6.414;2022-10-31T13:01:33;22.80;99.90
3051;DHT22;1535;51.098;6.414;2022-10-31T13:04:03;22.50;99.90
3051;DHT22;1535;51.098;6.414;2022-10-31T13:06:34;22.30;99.90
3051;DHT22;1535;51.098;6.414;2022-10-31T13:09:05;21.70;99.90
3051;DHT22;1535;51.098;6.414;2022-10-31T13:11:36;21.30;99.90
3051;DHT22;1535;51.098;6.414;2022-10-31T13:14:07;21.30;99.90
3051;DHT22;1535;51.098;6.414;2022-10-31T13:16:40;21.40;99.90
3051;DHT22;1535;51.098;6.414;2022-10-31T13:19:13;21.30;99.90
3051;DHT22;1535;51.098;6.414;2022-10-31T13:21:53;21.20;99.90
3051;DHT22;1535;51.098;6.414;2022-10-31T13:24:27;21.20;99.90
3051;DHT22;1535;51.098;6.414;2022-10-31T13:26:58;21.20;99.90
3051;DHT22;1535;51.098;6.414;2022-10-31T13:29:28;21.20;99.90
3051;DHT22;1535;51.098;6.414;2022-10-31T13:31:56;21.20;99.90
3051;DHT22;1535;51.098;6.414;2022-10-31T13:34:26;21.10;99.90
3051;DHT22;1535;51.098;6.414;2022-10-31T13:37:03;21.20;99.90
3051;DHT22;1535;51.098;6.414;2022-10-31T13:39:39;21.30;99.90
3051;DHT22;1535;51.098;6.414;2022-10-31T13:42:16;21.30;99.90
3051;DHT22;1535;51.098;6.414;2022-10-31T13:44:45;21.20;99.90
3051;DHT22;1535;51.098;6.414;2022-10-31T13:47:25;21.10;99.90
3051;DHT22;1535;51.098;6.414;2022-10-31T13:50:04;20.90;99.90
3051;DHT22;1535;51.098;6.414;2022-10-31T13:52:33;20.60;99.90
3051;DHT22;1535;51.098;6.414;2022-10-31T13:55:00;20.40;99.90
3051;DHT22;1535;51.098;6.414;2022-10-31T13:57:32;20.20;99.90
3051;DHT22;1535;51.098;6.414;2022-10-31T14:00:05;20.00;99.90
3051;DHT22;1535;51.098;6.414;2022-10-31T14:02:34;19.80;99.90
3051;DHT22;1535;51.098;6.414;2022-10-31T14:05:03;20.00;99.90
3051;DHT22;1535;51.098;6.414;2022-10-31T14:07:32;20.00;99.90
3051;DHT22;1535;51.098;6.414;2022-10-31T14:10:02;19.80;99.90
3051;DHT22;1535;51.098;6.414;2022-10-31T14:12:33;19.70;99.90
3051;DHT22;1535;51.098;6.414;2022-10-31T14:15:04;19.60;99.90
3051;DHT22;1535;51.098;6.414;2022-10-31T14:17:39;19.60;99.90
3051;DHT22;1535;51.098;6.414;2022-10-31T14:20:37;19.60;99.90
3051;DHT22;1535;51.098;6.414;2022-10-31T14:26:20;19.70;99.90
3051;DHT22;1535;51.098;6.414;2022-10-31T14:28:48;19.60;99.90
3051;DHT22;1535;51.098;6.414;2022-10-31T14:31:32;19.50;99.90
3051;DHT22;1535;51.098;6.414;2022-10-31T14:34:03;19.30;99.90
3051;DHT22;1535;51.098;6.414;2022-10-31T14:36:40;19.30;99.90
3051;DHT22;1535;51.098;6.414;2022-10-31T14:39:15;19.30;99.90
3051;DHT22;1535;51.098;6.414;2022-10-31T14:41:53;19.30;99.90
3051;DHT22;1535;51.098;6.414;2022-10-31T14:44:59;19.50;99.90
3051;DHT22;1535;51.098;6.414;2022-10-31T14:47:36;19.50;99.90
3051;DHT22;1535;51.098;6.414;2022-10-31T14:50:25;19.50;99.90
3051;DHT22;1535;51.098;6.414;2022-10-31T14:52:57;19.50;99.90
3051;DHT22;1535;51.098;6.414;2022-10-31T14:55:29;19.80;99.90
3051;DHT22;1535;51.098;6.414;2022-10-31T14:57:59;20.20;99.90
3051;DHT22;1535;51.098;6.414;2022-10-31T15:00:26;20.60;99.90
3051;DHT22;1535;51.098;6.414;2022-10-31T15:03:03;21.00;99.90
3051;DHT22;1535;51.098;6.414;2022-10-31T15:05:32;21.00;99.90
3051;DHT22;1535;51.098;6.414;2022-10-31T15:08:00;21.30;99.90
3051;DHT22;1535;51.098;6.414;2022-10-31T15:10:31;21.30;99.90
3051;DHT22;1535;51.098;6.414;2022-10-31T15:13:09;21.30;99.90
3051;DHT22;1535;51.098;6.414;2022-10-31T15:15:37;21.40;99.90
3051;DHT22;1535;51.098;6.414;2022-10-31T15:18:05;21.40;99.90
3051;DHT22;1535;51.098;6.414;2022-10-31T15:20:37;21.40;99.90
3051;DHT22;1535;51.098;6.414;2022-10-31T15:23:11;21.30;99.90
3051;DHT22;1535;51.098;6.414;2022-10-31T15:25:41;21.20;99.90
3051;DHT22;1535;51.098;6.414;2022-10-31T15:28:15;21.20;99.90
3051;DHT22;1535;51.098;6.414;2022-10-31T15:30:50;21.00;99.90
3051;DHT22;1535;51.098;6.414;2022-10-31T15:33:20;20.90;99.90
3051;DHT22;1535;51.098;6.414;2022-10-31T15:35:56;20.80;99.90
3051;DHT22;1535;51.098;6.414;2022-10-31T15:38:24;20.50;99.90
3051;DHT22;1535;51.098;6.414;2022-10-31T15:40:55;20.40;99.90
3051;DHT22;1535;51.098;6.414;2022-10-31T15:43:23;20.20;99.90
3051;DHT22;1535;51.098;6.414;2022-10-31T15:45:51;19.90;99.90
3051;DHT22;1535;51.098;6.414;2022-10-31T15:48:21;19.70;99.90
3051;DHT22;1535;51.098;6.414;2022-10-31T15:50:50;19.40;99.90
3051;DHT22;1535;51.098;6.414;2022-10-31T15:53:21;19.10;99.90
3051;DHT22;1535;51.098;6.414;2022-10-31T15:55:54;18.80;99.90
3051;DHT22;1535;51.098;6.414;2022-10-31T15:58:21;18.60;99.90
3051;DHT22;1535;51.098;6.414;2022-10-31T16:01:00;18.50;99.90
3051;DHT22;1535;51.098;6.414;2022-10-31T16:03:28;18.30;99.90
3051;DHT22;1535;51.098;6.414;2022-10-31T16:05:57;18.10;99.90
3051;DHT22;1535;51.098;6.414;2022-10-31T16:08:35;17.90;99.90
3051;DHT22;1535;51.098;6.414;2022-10-31T16:11:22;17.70;99.90
3051;DHT22;1535;51.098;6.414;2022-10-31T16:13:58;17.50;99.90
3051;DHT22;1535;51.098;6.414;2022-10-31T16:16:26;17.40;99.90
3051;DHT22;1535;51.098;6.414;2022-10-31T16:18:54;17.30;99.90
3051;DHT22;1535;51.098;6.414;2022-10-31T16:21:27;17.20;99.90
3051;DHT22;1535;51.098;6.414;2022-10-31T16:23:59;17.00;99.90
3051;DHT22;1535;51.098;6.414;2022-10-31T16:26:28;17.00;99.90
3051;DHT22;1535;51.098;6.414;2022-10-31T16:28:57;16.90;99.90
3051;DHT22;1535;51.098;6.414;2022-10-31T16:31:28;16.80;99.90
3051;DHT22;1535;51.098;6.414;2022-10-31T16:34:11;16.70;99.90
3051;DHT22;1535;51.098;6.414;2022-10-31T16:36:39;16.70;99.90
3051;DHT22;1535;51.098;6.414;2022-10-31T16:39:06;16.70;99.90
3051;DHT22;1535;51.098;6.414;2022-10-31T16:41:38;16.60;99.90